KDVN/DVN METAR and TAF weather

Enter ICAO airport designator
Station Type Date Time Source
KDVN METAR 2020/02/27 12:52 UTC NOAA

KDVN 271252Z AUTO 24006KT 10SM OVC038 M04/M08 A3012 RMK AO2 SNB24E48 SLP206 P0000 T10441078


Station Type Date Time Source
KDVN Decoded METAR 2020/02/27 12:52 UTC NOAA

DAVENPORT MUNICIPAL AIRPORT, IA, United States (KDVN) 41-37N 90-35W 228M
Feb 27, 2020 - 07:52 AM EST / 2020.02.27 1252 UTC
Wind: from the WSW (240 degrees) at 7 MPH (6 KT):0
Visibility: 10 mile(s):0
Sky conditions: overcast
Precipitation last hour: A trace
Temperature: 24.1 F (-4.4 C)
Windchill: 15 F (-9 C):1
Dew Point: 18.0 F (-7.8 C)
Relative Humidity: 77%
Pressure (altimeter): 30.12 in. Hg (1019 hPa)
ob: KDVN 271252Z AUTO 24006KT 10SM OVC038 M04/M08 A3012 RMK AO2 SNB24E48 SLP206 P0000 T10441078
cycle: 13

Station Type Date Time Source
KDVN TAF UTC NOAA

Error!

Example: see airport list